createdAt,value
2018-06-22T00:01:30.659Z,31.60
2018-06-22T00:03:59.550Z,31.90
2018-06-22T00:06:28.423Z,32.30
2018-06-22T00:08:57.286Z,32.20
2018-06-22T00:11:26.146Z,31.90
2018-06-22T00:13:55.026Z,32.40
2018-06-22T00:16:23.888Z,32.40
2018-06-22T00:18:52.763Z,32.30
2018-06-22T00:21:21.618Z,32.10
2018-06-22T00:23:50.522Z,32.20
2018-06-22T00:26:19.354Z,32.70
2018-06-22T00:28:48.322Z,33.60
2018-06-22T00:31:17.411Z,33.20
2018-06-22T00:33:46.679Z,33.30
2018-06-22T00:36:15.767Z,33.40
2018-06-22T00:38:44.930Z,33.50
2018-06-22T00:41:14.090Z,34.20
2018-06-22T00:43:43.369Z,34.20
2018-06-22T00:46:12.499Z,34.10
2018-06-22T00:48:41.793Z,34.60
2018-06-22T00:51:10.887Z,35.30
2018-06-22T00:54:18.375Z,35.10
2018-06-22T00:56:47.622Z,35.00
2018-06-22T00:59:16.709Z,35.30
2018-06-22T01:01:45.818Z,35.50
2018-06-22T01:04:14.895Z,35.70
2018-06-22T01:06:44.231Z,35.80
2018-06-22T01:11:43.006Z,36.00
2018-06-22T01:14:12.203Z,36.30
2018-06-22T01:16:41.290Z,36.50
2018-06-22T01:19:10.399Z,36.40
2018-06-22T01:21:39.454Z,36.70
2018-06-22T01:24:08.535Z,37.30
2018-06-22T01:26:37.582Z,37.30
2018-06-22T01:29:11.897Z,37.30
2018-06-22T01:31:40.992Z,37.60
2018-06-22T01:34:10.093Z,38.00
2018-06-22T01:36:39.206Z,38.00
2018-06-22T01:39:09.006Z,38.00
2018-06-22T01:41:38.115Z,38.00
2018-06-22T01:44:07.217Z,38.00
2018-06-22T01:49:05.051Z,38.40
2018-06-22T01:51:34.284Z,37.90
2018-06-22T01:54:03.776Z,39.20
2018-06-22T01:56:32.878Z,38.40
2018-06-22T01:59:01.955Z,38.70
2018-06-22T02:01:31.126Z,38.70
2018-06-22T02:04:00.223Z,38.90
2018-06-22T02:06:29.367Z,39.20
2018-06-22T02:08:58.479Z,39.10
2018-06-22T02:11:27.648Z,39.60
2018-06-22T02:13:56.736Z,40.10
2018-06-22T02:16:25.818Z,40.30
2018-06-22T02:18:54.885Z,40.60
2018-06-22T02:21:24.075Z,41.00
2018-06-22T02:23:53.149Z,41.10
2018-06-22T02:28:51.111Z,42.20
2018-06-22T02:31:20.188Z,41.90
2018-06-22T02:33:49.470Z,42.00
2018-06-22T02:36:18.551Z,42.60
2018-06-22T02:38:47.647Z,42.80
2018-06-22T02:41:16.930Z,43.20
2018-06-22T02:43:46.107Z,43.60
2018-06-22T02:46:15.268Z,43.90
2018-06-22T02:48:44.452Z,43.90
2018-06-22T02:51:13.626Z,44.40
2018-06-22T02:53:42.839Z,44.40
2018-06-22T02:56:12.092Z,44.60
2018-06-22T02:58:41.323Z,44.90
2018-06-22T03:01:10.455Z,44.60
2018-06-22T03:03:39.551Z,45.00
2018-06-22T03:06:08.648Z,45.20
2018-06-22T03:08:37.723Z,45.50
2018-06-22T03:13:35.487Z,46.10
2018-06-22T03:16:05.040Z,46.00
2018-06-22T03:18:34.140Z,46.00
2018-06-22T03:21:03.211Z,45.90
2018-06-22T03:23:32.331Z,45.90
2018-06-22T03:26:01.415Z,46.00
2018-06-22T03:28:30.516Z,45.90
2018-06-22T03:30:59.620Z,46.90
2018-06-22T03:33:28.698Z,47.00
2018-06-22T03:35:57.795Z,47.60
2018-06-22T03:38:26.892Z,47.50
2018-06-22T03:40:56.002Z,47.80
2018-06-22T03:43:25.090Z,48.10
2018-06-22T03:45:54.209Z,48.30
2018-06-22T03:48:23.303Z,48.30
2018-06-22T03:50:52.399Z,48.40
2018-06-22T03:53:21.479Z,49.00
2018-06-22T03:55:50.566Z,48.80
2018-06-22T03:58:19.654Z,49.00
2018-06-22T04:00:48.744Z,49.70
2018-06-22T04:03:17.851Z,49.00
2018-06-22T04:05:46.951Z,48.60
2018-06-22T04:08:16.199Z,48.30
2018-06-22T04:10:45.431Z,48.50
2018-06-22T04:13:14.534Z,48.20
2018-06-22T04:15:43.656Z,48.60
2018-06-22T04:18:12.791Z,48.80
2018-06-22T04:20:41.977Z,48.50
2018-06-22T04:23:11.095Z,48.80
2018-06-22T04:25:40.223Z,48.90
2018-06-22T04:28:09.315Z,49.40
2018-06-22T04:30:38.437Z,49.20
2018-06-22T04:33:07.615Z,50.00
2018-06-22T04:35:36.709Z,49.50
2018-06-22T04:38:05.821Z,48.90
2018-06-22T04:40:34.927Z,48.30
2018-06-22T04:43:04.243Z,49.10
2018-06-22T04:45:33.331Z,48.20
2018-06-22T04:48:02.422Z,48.10
2018-06-22T04:50:31.614Z,48.50
2018-06-22T04:53:00.707Z,48.80
2018-06-22T04:55:29.838Z,48.10
2018-06-22T04:57:59.055Z,48.10
2018-06-22T05:00:28.199Z,49.10
2018-06-22T05:02:57.288Z,48.60
2018-06-22T05:05:26.419Z,48.70
2018-06-22T05:07:55.506Z,48.70
2018-06-22T05:10:24.711Z,49.50
2018-06-22T05:12:53.814Z,49.70
2018-06-22T05:15:22.950Z,49.50
2018-06-22T05:17:52.039Z,48.90
2018-06-22T05:20:21.997Z,49.70
2018-06-22T05:22:51.083Z,49.70
2018-06-22T05:25:20.375Z,48.10
2018-06-22T05:27:49.454Z,48.30
2018-06-22T05:30:18.581Z,48.20
2018-06-22T05:32:47.643Z,47.40
2018-06-22T05:35:16.751Z,46.80
2018-06-22T05:37:45.838Z,46.70
2018-06-22T05:40:14.959Z,46.80
2018-06-22T05:42:44.394Z,46.70
2018-06-22T05:45:13.623Z,46.70
2018-06-22T05:50:11.547Z,46.90
2018-06-22T05:52:40.677Z,46.60
2018-06-22T05:55:09.802Z,46.90
2018-06-22T05:57:38.955Z,47.10
2018-06-22T06:00:08.059Z,45.30
2018-06-22T06:02:37.154Z,45.00
2018-06-22T06:05:06.386Z,45.10
2018-06-22T06:07:35.485Z,45.10
2018-06-22T06:10:04.603Z,44.50
2018-06-22T06:15:02.383Z,44.00
2018-06-22T06:17:31.484Z,43.50
2018-06-22T06:20:00.644Z,41.90
2018-06-22T06:22:29.665Z,41.80
2018-06-22T06:24:58.775Z,42.00
2018-06-22T06:27:27.868Z,41.90
2018-06-22T06:29:56.946Z,42.50
2018-06-22T06:32:26.948Z,40.40
2018-06-22T06:34:56.032Z,41.20
2018-06-22T06:37:25.103Z,40.50
2018-06-22T06:39:54.195Z,40.80
2018-06-22T06:42:23.269Z,40.10
2018-06-22T06:44:52.364Z,39.60
2018-06-22T06:47:21.439Z,40.20
2018-06-22T06:49:50.527Z,39.00
2018-06-22T06:52:19.628Z,39.40
2018-06-22T06:54:48.727Z,39.60
2018-06-22T06:57:17.913Z,38.40
2018-06-22T06:59:47.223Z,38.50
2018-06-22T07:02:16.335Z,38.90
2018-06-22T07:04:45.492Z,39.60
2018-06-22T07:07:14.603Z,38.90
2018-06-22T07:09:43.962Z,38.80
2018-06-22T07:12:13.100Z,39.70
2018-06-22T07:14:42.231Z,39.10
2018-06-22T07:17:11.335Z,40.10
2018-06-22T07:19:40.569Z,39.20
2018-06-22T07:22:09.694Z,39.20
2018-06-22T07:24:38.791Z,38.20
2018-06-22T07:27:07.913Z,37.90
2018-06-22T07:29:37.008Z,37.70
2018-06-22T07:32:06.227Z,37.00
2018-06-22T07:34:35.326Z,38.30
2018-06-22T07:37:04.396Z,39.30
2018-06-22T07:39:33.559Z,39.80
2018-06-22T07:42:02.615Z,39.30
2018-06-22T07:44:31.730Z,39.00
2018-06-22T07:47:00.819Z,38.50
2018-06-22T07:49:29.907Z,36.20
2018-06-22T07:51:59.011Z,37.00
2018-06-22T07:54:28.106Z,36.40
2018-06-22T07:56:57.216Z,37.10
2018-06-22T07:59:26.299Z,34.40
2018-06-22T08:01:55.551Z,33.90
2018-06-22T08:04:24.627Z,36.00
2018-06-22T08:06:53.735Z,34.20
2018-06-22T08:09:22.809Z,33.80
2018-06-22T08:11:51.967Z,34.50
2018-06-22T08:14:21.103Z,34.90
2018-06-22T08:16:50.238Z,34.80
2018-06-22T08:19:19.322Z,35.10
2018-06-22T08:21:48.399Z,35.30
2018-06-22T08:24:17.542Z,35.60
2018-06-22T08:26:46.595Z,35.20
2018-06-22T08:29:15.715Z,35.30
2018-06-22T08:31:44.859Z,36.10
2018-06-22T08:34:13.955Z,35.70
2018-06-22T08:36:43.115Z,35.20
2018-06-22T08:39:12.223Z,35.00
2018-06-22T08:41:41.690Z,34.60
2018-06-22T08:44:11.157Z,35.40
2018-06-22T08:46:40.279Z,35.70
2018-06-22T08:49:09.348Z,35.50
2018-06-22T08:51:38.483Z,35.80
2018-06-22T08:54:07.563Z,35.80
2018-06-22T08:56:36.688Z,36.10
2018-06-22T08:59:05.755Z,36.10
2018-06-22T09:04:03.888Z,36.10
2018-06-22T09:06:33.003Z,36.70
2018-06-22T09:09:02.074Z,37.20
2018-06-22T09:11:31.171Z,38.40
2018-06-22T09:14:00.270Z,38.50
2018-06-22T09:16:29.404Z,38.40
2018-06-22T09:18:58.501Z,39.10
2018-06-22T09:23:56.440Z,40.30
2018-06-22T09:26:25.535Z,42.90
2018-06-22T09:28:54.615Z,46.10
2018-06-22T09:31:23.835Z,49.00
2018-06-22T09:33:52.971Z,50.40
2018-06-22T09:36:22.065Z,52.60
2018-06-22T09:38:51.141Z,53.80
2018-06-22T09:41:20.235Z,57.10
2018-06-22T09:43:49.327Z,56.60
2018-06-22T09:46:18.441Z,61.10
2018-06-22T09:48:47.541Z,59.90
2018-06-22T09:51:16.669Z,61.20
2018-06-22T09:53:46.094Z,59.10
2018-06-22T09:56:15.285Z,64.60
2018-06-22T09:58:44.492Z,62.90
2018-06-22T10:01:13.650Z,61.40
2018-06-22T10:03:42.751Z,64.40
2018-06-22T10:06:12.069Z,62.10
2018-06-22T10:08:41.219Z,59.40
2018-06-22T10:11:10.314Z,53.90
2018-06-22T10:13:39.424Z,56.30
2018-06-22T10:16:08.478Z,57.00
2018-06-22T10:18:37.578Z,51.80
2018-06-22T10:21:06.668Z,52.50
2018-06-22T10:23:35.784Z,48.90
2018-06-22T10:26:04.954Z,46.90
2018-06-22T10:28:34.050Z,46.50
2018-06-22T10:31:03.123Z,43.70
2018-06-22T10:33:32.211Z,42.00
2018-06-22T10:36:01.363Z,42.60
2018-06-22T10:38:30.522Z,42.50
2018-06-22T10:40:59.714Z,43.40
2018-06-22T10:43:28.849Z,42.40
2018-06-22T10:45:58.069Z,41.80
2018-06-22T10:48:27.175Z,44.00
2018-06-22T10:50:56.340Z,43.50
2018-06-22T10:53:25.680Z,42.00
2018-06-22T10:55:55.095Z,42.70
2018-06-22T10:58:24.412Z,42.90
2018-06-22T11:00:53.550Z,42.40
2018-06-22T11:03:22.651Z,42.80
2018-06-22T11:05:51.928Z,42.80
2018-06-22T11:08:21.128Z,43.70
2018-06-22T11:13:18.924Z,43.10
2018-06-22T11:15:48.040Z,43.50
2018-06-22T11:18:17.127Z,42.90
2018-06-22T11:20:46.263Z,44.10
2018-06-22T11:23:15.378Z,43.50
2018-06-22T11:25:44.456Z,43.20
2018-06-22T11:28:13.558Z,43.70
2018-06-22T11:30:42.690Z,40.70
2018-06-22T11:33:11.925Z,40.50
2018-06-22T11:35:41.088Z,39.10
2018-06-22T11:38:10.221Z,36.90
2018-06-22T11:40:39.271Z,34.30
2018-06-22T11:43:08.740Z,34.60
2018-06-22T11:45:38.115Z,36.00
2018-06-22T11:48:07.407Z,37.10
2018-06-22T11:50:36.507Z,37.10
2018-06-22T11:53:05.642Z,35.10
2018-06-22T11:55:34.758Z,32.80
2018-06-22T11:58:04.000Z,32.40
2018-06-22T12:00:33.192Z,32.50
2018-06-22T12:03:02.416Z,33.90
2018-06-22T12:05:31.583Z,39.80
2018-06-22T12:08:00.687Z,49.60
2018-06-22T12:10:29.785Z,65.50
2018-06-22T12:12:58.935Z,59.00
2018-06-22T12:15:28.052Z,74.60
2018-06-22T12:17:57.165Z,67.00
2018-06-22T12:20:26.251Z,55.90
2018-06-22T12:22:55.498Z,69.60
2018-06-22T12:25:24.591Z,55.30
2018-06-22T12:27:53.775Z,58.60
2018-06-22T12:30:22.950Z,56.00
2018-06-22T12:32:52.118Z,57.40
2018-06-22T12:35:21.243Z,54.30
2018-06-22T12:37:50.332Z,47.70
2018-06-22T12:40:19.451Z,50.00
2018-06-22T12:42:48.611Z,47.40
2018-06-22T12:45:17.742Z,44.30
2018-06-22T12:47:47.551Z,42.10
2018-06-22T12:50:16.832Z,48.60
2018-06-22T12:52:45.935Z,39.50
2018-06-22T12:57:44.098Z,42.70
2018-06-22T13:00:13.330Z,35.80
2018-06-22T13:02:42.559Z,38.30
2018-06-22T13:05:11.863Z,39.40
2018-06-22T13:07:41.096Z,39.70
2018-06-22T13:10:10.317Z,41.40
2018-06-22T13:12:39.429Z,43.30
2018-06-22T13:15:08.611Z,41.60
2018-06-22T13:17:37.779Z,41.50
2018-06-22T13:20:06.926Z,38.70
2018-06-22T13:22:36.069Z,36.40
2018-06-22T13:25:05.459Z,36.30
2018-06-22T13:27:34.583Z,35.80
2018-06-22T13:30:03.760Z,31.60
2018-06-22T13:32:32.973Z,31.80
2018-06-22T13:35:02.199Z,35.40
2018-06-22T13:37:31.322Z,37.00
2018-06-22T13:40:00.387Z,37.90
2018-06-22T13:42:29.519Z,32.10
2018-06-22T13:44:58.619Z,34.80
2018-06-22T13:47:27.806Z,32.40
2018-06-22T13:49:56.951Z,29.90
2018-06-22T13:52:26.068Z,32.20
2018-06-22T13:54:55.175Z,31.90
2018-06-22T13:57:24.486Z,33.50
2018-06-22T13:59:53.807Z,36.10
2018-06-22T14:02:22.899Z,38.90
2018-06-22T14:04:57.395Z,44.20
2018-06-22T14:07:26.484Z,46.10
2018-06-22T14:09:55.738Z,41.40
2018-06-22T14:12:25.140Z,39.40
2018-06-22T14:14:54.266Z,33.70
2018-06-22T14:17:23.387Z,32.80
2018-06-22T14:19:52.524Z,33.30
2018-06-22T14:22:21.607Z,31.50
2018-06-22T14:24:50.723Z,33.30
2018-06-22T14:27:19.824Z,28.20
2018-06-22T14:29:48.933Z,27.30
2018-06-22T14:32:18.086Z,27.30
2018-06-22T14:34:47.215Z,28.10
2018-06-22T14:37:16.392Z,28.50
2018-06-22T14:39:45.492Z,28.50
2018-06-22T14:42:14.611Z,30.50
2018-06-22T14:44:43.779Z,37.80
2018-06-22T14:47:12.930Z,40.60
2018-06-22T14:49:42.031Z,44.30
2018-06-22T14:52:11.240Z,46.60
2018-06-22T14:54:45.704Z,48.50
2018-06-22T14:57:20.215Z,48.90
2018-06-22T14:59:54.603Z,49.50
2018-06-22T15:02:29.062Z,45.40
2018-06-22T15:05:03.489Z,40.10
2018-06-22T15:07:37.812Z,38.80
2018-06-22T15:10:06.948Z,41.30
2018-06-22T15:12:36.063Z,35.50
2018-06-22T15:15:05.975Z,33.30
2018-06-22T15:17:40.419Z,31.70
2018-06-22T15:20:09.607Z,31.60
2018-06-22T15:22:38.715Z,32.70
2018-06-22T15:25:07.867Z,32.60
2018-06-22T15:27:36.966Z,32.60
2018-06-22T15:30:06.200Z,33.30
2018-06-22T15:32:35.395Z,35.90
2018-06-22T15:35:09.832Z,36.40
2018-06-22T15:37:44.061Z,35.20
2018-06-22T15:42:52.641Z,33.70
2018-06-22T15:45:33.870Z,33.90
2018-06-22T15:48:08.302Z,31.60
2018-06-22T15:50:42.862Z,29.70
2018-06-22T15:53:17.454Z,28.90
2018-06-22T15:55:47.997Z,30.90
2018-06-22T15:58:17.163Z,32.60
2018-06-22T16:00:46.415Z,34.50
2018-06-22T16:03:20.787Z,35.80
2018-06-22T16:05:49.936Z,35.70
2018-06-22T16:08:23.627Z,37.00
2018-06-22T16:10:52.782Z,37.60
2018-06-22T16:13:22.204Z,37.50
2018-06-22T16:15:56.520Z,37.90
2018-06-22T16:18:30.849Z,37.40
2018-06-22T16:21:05.414Z,38.50
2018-06-22T16:23:40.764Z,35.60
2018-06-22T16:26:15.205Z,35.90
2018-06-22T16:28:44.425Z,33.60
2018-06-22T16:31:13.804Z,34.00
2018-06-22T16:33:58.408Z,35.90
2018-06-22T16:36:28.503Z,35.10
2018-06-22T16:38:57.794Z,35.30
2018-06-22T16:41:26.887Z,35.80
2018-06-22T16:43:55.962Z,35.20
2018-06-22T16:46:25.103Z,34.70
2018-06-22T16:48:54.182Z,35.10
2018-06-22T16:51:23.306Z,35.40
2018-06-22T16:53:52.391Z,35.40
2018-06-22T16:56:21.516Z,35.00
2018-06-22T16:58:50.599Z,35.50
2018-06-22T17:01:19.811Z,35.30
2018-06-22T17:03:49.015Z,35.50
2018-06-22T17:06:18.183Z,33.50
2018-06-22T17:08:52.563Z,33.20
2018-06-22T17:11:27.023Z,34.50
2018-06-22T17:14:01.524Z,35.10
2018-06-22T17:16:36.138Z,34.60
2018-06-22T17:19:05.283Z,36.20
2018-06-22T17:21:34.394Z,35.50
2018-06-22T17:24:03.542Z,35.30
2018-06-22T17:26:32.707Z,35.90
2018-06-22T17:29:01.833Z,35.30
2018-06-22T17:31:30.928Z,35.40
2018-06-22T17:34:00.065Z,34.60
2018-06-22T17:36:29.274Z,35.10
2018-06-22T17:38:58.375Z,34.00
2018-06-22T17:41:27.491Z,33.30
2018-06-22T17:43:56.686Z,33.20
2018-06-22T17:46:26.071Z,33.90
2018-06-22T17:51:23.831Z,35.00
2018-06-22T17:53:53.227Z,35.50
2018-06-22T17:56:33.030Z,35.70
2018-06-22T17:59:07.559Z,35.80
2018-06-22T18:01:42.203Z,36.20
2018-06-22T18:04:16.590Z,36.40
2018-06-22T18:06:51.143Z,36.20
2018-06-22T18:09:25.974Z,36.80
2018-06-22T18:12:00.471Z,36.30
2018-06-22T18:14:29.623Z,37.10
2018-06-22T18:16:58.730Z,36.00
2018-06-22T18:19:27.875Z,35.70
2018-06-22T18:21:56.984Z,36.80
2018-06-22T18:24:26.435Z,36.40
2018-06-22T18:26:55.592Z,36.50
2018-06-22T18:29:24.707Z,37.90
2018-06-22T18:31:54.120Z,37.60
2018-06-22T18:34:23.292Z,37.40
2018-06-22T18:36:52.463Z,37.70
2018-06-22T18:39:21.623Z,37.80
2018-06-22T18:41:50.744Z,39.20
2018-06-22T18:44:19.871Z,39.20
2018-06-22T18:46:49.064Z,39.00
2018-06-22T18:49:18.247Z,40.00
2018-06-22T18:51:51.646Z,39.20
2018-06-22T18:54:26.185Z,39.70
2018-06-22T18:57:00.604Z,39.60
2018-06-22T18:59:35.204Z,40.10
2018-06-22T19:02:09.839Z,40.70
2018-06-22T19:04:39.004Z,40.90
2018-06-22T19:07:08.188Z,39.50
2018-06-22T19:09:37.366Z,39.20
2018-06-22T19:12:06.974Z,39.70
2018-06-22T19:14:36.394Z,39.80
2018-06-22T19:17:05.955Z,39.60
2018-06-22T19:19:35.148Z,39.10
2018-06-22T19:22:04.386Z,39.50
2018-06-22T19:24:33.504Z,40.00
2018-06-22T19:27:02.706Z,40.30
2018-06-22T19:29:31.835Z,40.60
2018-06-22T19:32:01.243Z,40.00
2018-06-22T19:34:35.713Z,40.50
2018-06-22T19:37:04.913Z,40.50
2018-06-22T19:39:34.019Z,40.30
2018-06-22T19:42:03.532Z,40.30
2018-06-22T19:44:38.403Z,40.60
2018-06-22T19:47:12.827Z,41.20
2018-06-22T19:49:47.163Z,41.20
2018-06-22T19:52:21.783Z,41.70
2018-06-22T19:54:50.965Z,42.00
2018-06-22T19:57:20.080Z,42.00
2018-06-22T19:59:49.445Z,42.10
2018-06-22T20:02:19.155Z,42.30
2018-06-22T20:04:48.615Z,42.60
2018-06-22T20:07:17.866Z,43.50
2018-06-22T20:09:47.299Z,43.10
2018-06-22T20:12:16.504Z,43.80
2018-06-22T20:14:45.782Z,43.90
2018-06-22T20:17:15.007Z,44.20
2018-06-22T20:19:44.242Z,43.90
2018-06-22T20:22:13.432Z,44.20
2018-06-22T20:24:47.911Z,44.20
2018-06-22T20:27:17.042Z,45.00
2018-06-22T20:29:46.222Z,44.70
2018-06-22T20:32:16.507Z,45.00
2018-06-22T20:39:58.834Z,46.10
2018-06-22T20:42:33.330Z,45.50
2018-06-22T20:45:07.844Z,45.90
2018-06-22T20:47:42.216Z,45.80
2018-06-22T20:50:16.457Z,46.20
2018-06-22T20:52:46.191Z,46.20
2018-06-22T20:55:15.453Z,45.90
2018-06-22T20:57:44.790Z,45.90
2018-06-22T21:00:14.396Z,45.90
2018-06-22T21:02:44.902Z,46.30
2018-06-22T21:05:14.115Z,46.90
2018-06-22T21:07:43.470Z,47.30
2018-06-22T21:10:14.524Z,47.00
2018-06-22T21:12:44.011Z,47.50
2018-06-22T21:15:13.727Z,47.50
2018-06-22T21:17:42.962Z,48.30
2018-06-22T21:20:12.140Z,47.90
2018-06-22T21:22:42.175Z,47.00
2018-06-22T21:25:11.663Z,47.60
2018-06-22T21:27:46.301Z,47.70
2018-06-22T21:30:20.752Z,48.00
2018-06-22T21:32:55.311Z,48.30
2018-06-22T21:35:29.759Z,48.20
2018-06-22T21:38:04.276Z,48.10
2018-06-22T21:40:33.636Z,48.10
2018-06-22T21:43:03.031Z,48.40
2018-06-22T21:45:32.181Z,47.90
2018-06-22T21:48:01.385Z,48.20
2018-06-22T21:50:30.601Z,48.00
2018-06-22T21:52:59.771Z,48.30
2018-06-22T21:55:29.082Z,48.40
2018-06-22T21:57:58.491Z,48.40
2018-06-22T22:00:33.063Z,48.30
2018-06-22T22:03:02.839Z,48.30
2018-06-22T22:05:32.324Z,48.30
2018-06-22T22:08:01.482Z,48.30
2018-06-22T22:10:36.119Z,48.30
2018-06-22T22:13:05.272Z,48.40
2018-06-22T22:15:34.428Z,48.60
2018-06-22T22:18:03.627Z,48.40
2018-06-22T22:20:32.738Z,48.40
2018-06-22T22:23:01.853Z,48.70
2018-06-22T22:25:31.116Z,49.00
2018-06-22T22:28:00.209Z,48.40
2018-06-22T22:30:29.464Z,48.40
2018-06-22T22:32:58.571Z,48.40
2018-06-22T22:35:27.947Z,48.30
2018-06-22T22:37:57.071Z,49.10
2018-06-22T22:40:26.170Z,49.40
2018-06-22T22:42:55.279Z,48.60
2018-06-22T22:45:24.420Z,48.90
2018-06-22T22:47:53.563Z,48.80
2018-06-22T22:50:22.643Z,48.90
2018-06-22T22:52:51.827Z,49.20
2018-06-22T22:55:21.030Z,49.00
2018-06-22T22:57:50.175Z,49.80
2018-06-22T23:00:19.346Z,49.90
2018-06-22T23:02:52.733Z,50.10
2018-06-22T23:05:21.827Z,50.30
2018-06-22T23:07:50.899Z,50.70
2018-06-22T23:10:20.027Z,50.70
2018-06-22T23:12:49.126Z,50.90
2018-06-22T23:15:18.295Z,51.00
2018-06-22T23:17:47.484Z,51.30
2018-06-22T23:20:16.659Z,52.00
2018-06-22T23:22:57.171Z,52.00
2018-06-22T23:25:26.275Z,52.30
2018-06-22T23:27:55.406Z,52.30
2018-06-22T23:30:24.495Z,52.40
2018-06-22T23:32:53.590Z,53.00
2018-06-22T23:35:25.487Z,53.00
2018-06-22T23:37:55.855Z,53.10
2018-06-22T23:40:25.394Z,53.30
2018-06-22T23:42:54.499Z,53.50
2018-06-22T23:45:23.579Z,53.40
2018-06-22T23:47:52.716Z,53.80
2018-06-22T23:50:21.903Z,54.00
2018-06-22T23:52:51.035Z,54.00
2018-06-22T23:55:20.157Z,54.00
2018-06-22T23:57:49.246Z,54.80
